Time;durP1;ratioP1;P1;durP2;ratioP2;P2;SDS_P1;SDS_P2;PMS_P1;PMS_P2;Temp;Humidity;BMP_temperature;BMP_pressure;BME280_temperature;BME280_humidity;BME280_pressure;Samples;Min_cycle;Max_cycle;Signal;HPM_P1;HPM_P2
2022/07/10 00:00:53;;;;;;;10.85;8.63;;;;;;;20.26;69.70;99497.63;5072609;28;20498;-81
2022/07/10 00:03:20;;;;;;;10.52;7.45;;;;;;;19.92;67.94;99438.09;5072849;28;20063;-80
2022/07/10 00:05:49;;;;;;;12.65;8.82;;;;;;;20.01;67.85;99466.84;5072175;28;20411;-80
2022/07/10 00:08:16;;;;;;;9.52;6.55;;;;;;;19.91;66.70;99456.69;5073641;28;20143;-81
2022/07/10 00:10:43;;;;;;;10.90;6.97;;;;;;;19.76;66.30;99445.78;5074241;28;20059;-81
2022/07/10 00:13:10;;;;;;;8.25;6.47;;;;;;;19.57;66.26;99437.69;5072744;28;20502;-81
2022/07/10 00:15:37;;;;;;;9.00;5.88;;;;;;;19.31;66.21;99401.66;5072767;28;20052;-79
2022/07/10 00:18:04;;;;;;;5.85;5.25;;;;;;;19.33;66.54;99442.16;5072662;28;20052;-80
2022/07/10 00:20:32;;;;;;;6.30;5.20;;;;;;;19.17;66.15;99410.16;5072549;28;20052;-82
2022/07/10 00:22:59;;;;;;;6.82;5.18;;;;;;;19.32;65.74;99431.66;5071939;28;20456;-83
2022/07/10 00:25:28;;;;;;;4.93;4.37;;;;;;;19.30;65.63;99439.66;5072904;28;20114;-82
2022/07/10 00:27:55;;;;;;;6.95;4.72;;;;;;;19.17;65.18;99423.38;5071381;28;20059;-82
2022/07/10 00:30:22;;;;;;;6.07;4.70;;;;;;;19.19;65.16;99423.34;5072750;28;20195;-80
2022/07/10 00:32:49;;;;;;;5.63;4.65;;;;;;;19.12;64.74;99422.72;5072470;28;20063;-81
2022/07/10 00:35:16;;;;;;;5.70;4.20;;;;;;;19.20;64.90;99454.16;5072603;28;20139;-80
2022/07/10 00:37:43;;;;;;;6.28;4.47;;;;;;;19.16;64.66;99442.81;5072229;28;20529;-81
2022/07/10 00:40:10;;;;;;;6.15;4.00;;;;;;;19.08;64.48;99441.41;5072314;28;20060;-80
2022/07/10 00:42:38;;;;;;;5.60;4.13;;;;;;;19.02;64.73;99437.22;5072546;28;20453;-81
2022/07/10 00:45:06;;;;;;;7.13;4.57;;;;;;;19.02;64.94;99440.72;5072517;28;20056;-81
2022/07/10 00:47:33;;;;;;;6.40;4.25;;;;;;;18.99;64.90;99432.03;5071175;28;20102;-81
2022/07/10 00:50:00;;;;;;;4.78;4.22;;;;;;;19.16;64.61;99439.31;5072416;28;20052;-81
2022/07/10 00:52:29;;;;;;;4.80;3.92;;;;;;;19.06;64.70;99437.94;5072403;28;20072;-81
2022/07/10 00:54:57;;;;;;;4.93;4.40;;;;;;;19.04;64.77;99451.25;5071401;28;20078;-81
2022/07/10 00:57:24;;;;;;;4.32;3.92;;;;;;;18.96;64.89;99440.09;5072560;28;20083;-81
2022/07/10 00:59:52;;;;;;;4.75;4.35;;;;;;;18.86;65.11;99434.25;5072448;28;20045;-82
2022/07/10 01:02:19;;;;;;;6.70;4.50;;;;;;;18.87;65.31;99449.25;5072818;28;20048;-81
2022/07/10 01:04:47;;;;;;;6.05;4.90;;;;;;;18.88;65.48;99460.69;5072556;28;20057;-80
2022/07/10 01:07:15;;;;;;;6.28;4.53;;;;;;;18.90;65.47;99449.09;5072726;28;20048;-81
2022/07/10 01:09:43;;;;;;;9.20;4.47;;;;;;;18.88;65.59;99427.13;5072936;28;20121;-81
2022/07/10 01:12:12;;;;;;;5.82;4.70;;;;;;;19.01;65.18;99436.38;5073071;28;20295;-82
2022/07/10 01:14:39;;;;;;;5.03;4.53;;;;;;;19.00;65.35;99417.88;5088238;28;20124;-82
2022/07/10 01:17:08;;;;;;;7.35;5.13;;;;;;;19.08;65.09;99436.09;5093432;28;20032;-81
2022/07/10 01:19:36;;;;;;;5.88;4.55;;;;;;;19.05;65.31;99444.16;5093412;28;20063;-80
2022/07/10 01:22:03;;;;;;;7.38;5.25;;;;;;;19.08;65.06;99438.75;5076403;28;20062;-81
2022/07/10 01:24:31;;;;;;;5.50;4.78;;;;;;;19.16;65.02;99466.66;5072241;28;20051;-81
2022/07/10 01:26:57;;;;;;;5.60;5.00;;;;;;;19.03;65.21;99428.34;5071907;28;20045;-81
2022/07/10 01:29:25;;;;;;;7.28;5.30;;;;;;;19.02;65.18;99413.41;5072323;28;20052;-82
2022/07/10 01:31:52;;;;;;;8.93;5.30;;;;;;;19.10;65.62;99423.66;5072046;28;20049;-81
2022/07/10 01:34:23;;;;;;;6.10;4.97;;;;;;;19.05;65.64;99420.34;5073722;28;20056;-81
2022/07/10 01:36:50;;;;;;;6.38;5.30;;;;;;;19.05;65.63;99417.69;5075757;28;20044;-82
2022/07/10 01:39:17;;;;;;;5.63;5.10;;;;;;;19.16;65.83;99442.81;5076213;28;20052;-81
2022/07/10 01:41:45;;;;;;;7.72;5.20;;;;;;;19.15;65.86;99434.97;5075594;28;20092;-80
2022/07/10 01:44:12;;;;;;;6.65;5.22;;;;;;;19.30;65.72;99457.34;5076909;28;20093;-81
2022/07/10 01:46:46;;;;;;;7.10;5.70;;;;;;;19.40;65.30;99453.38;5092430;28;20059;-81
2022/07/10 01:49:13;;;;;;;6.78;5.10;;;;;;;19.53;65.21;99456.41;5076481;28;20063;-81
2022/07/10 01:51:42;;;;;;;8.63;5.75;;;;;;;19.60;65.11;99444.66;5075463;28;20444;-82
2022/07/10 01:54:09;;;;;;;9.35;6.45;;;;;;;19.63;64.73;99445.38;5075454;28;20056;-82
2022/07/10 01:56:38;;;;;;;8.55;6.72;;;;;;;19.63;64.86;99434.78;5074761;28;20048;-82
2022/07/10 01:59:05;;;;;;;7.85;6.57;;;;;;;19.76;64.85;99437.84;5081331;28;20161;-81
2022/07/10 02:01:32;;;;;;;9.07;6.55;;;;;;;19.88;64.63;99428.53;5083223;28;20080;-80
2022/07/10 02:06:45;;;;;;;9.10;6.32;;;;;;;20.22;63.84;99430.63;5075306;28;20102;-81
2022/07/10 02:09:14;;;;;;;9.30;7.15;;;;;;;20.13;63.46;99385.91;5075263;28;20102;-81
2022/07/10 02:11:41;;;;;;;8.43;6.30;;;;;;;20.39;63.03;99424.56;5075226;28;20106;-81
2022/07/10 02:14:09;;;;;;;9.02;6.50;;;;;;;21.07;61.26;99417.09;5074954;28;20421;-82
2022/07/10 02:16:35;;;;;;;8.32;6.82;;;;;;;22.26;58.01;99408.66;5074872;28;20452;-81
2022/07/10 02:19:03;;;;;;;8.40;6.32;;;;;;;23.09;55.73;99414.91;5075074;28;20056;-81
2022/07/10 02:21:30;;;;;;;9.65;6.68;;;;;;;23.21;55.08;99410.69;5075289;28;20055;-82
2022/07/10 02:23:57;;;;;;;8.68;6.85;;;;;;;23.18;54.87;99376.25;5074899;28;20052;-81
2022/07/10 02:26:24;;;;;;;12.40;7.00;;;;;;;23.45;54.15;99374.66;5074620;28;20623;-81
2022/07/10 02:28:51;;;;;;;9.20;6.57;;;;;;;23.41;54.19;99421.09;5074399;28;20052;-81
2022/07/10 02:31:18;;;;;;;9.23;7.13;;;;;;;23.45;54.37;99395.16;5074684;28;20056;-82
2022/07/10 02:33:45;;;;;;;11.13;7.05;;;;;;;23.46;54.41;99375.53;5074787;28;20040;-80
2022/07/10 02:36:12;;;;;;;11.18;7.38;;;;;;;23.08;55.45;99391.88;5074572;28;20094;-81
2022/07/10 02:38:39;;;;;;;11.05;7.60;;;;;;;22.92;56.06;99383.00;5074693;28;20052;-81
2022/07/10 02:41:07;;;;;;;11.23;8.07;;;;;;;23.61;54.43;99395.09;5074563;28;20055;-80
2022/07/10 02:43:34;;;;;;;10.85;7.47;;;;;;;23.79;54.08;99393.19;5075148;28;20060;-80
2022/07/10 02:46:01;;;;;;;9.73;7.28;;;;;;;23.13;55.52;99373.00;5074606;28;20053;-81
2022/07/10 02:48:29;;;;;;;8.75;6.90;;;;;;;22.32;57.73;99368.44;5056837;28;20198;-81
2022/07/10 02:50:55;;;;;;;10.32;7.68;;;;;;;21.96;59.21;99384.47;5073253;28;20059;-82
2022/07/10 02:53:23;;;;;;;8.93;7.68;;;;;;;21.52;60.45;99390.22;5074419;28;20045;-81
2022/07/10 02:55:50;;;;;;;10.90;8.13;;;;;;;21.17;61.73;99383.00;5074240;28;20064;-81
2022/07/10 02:58:17;;;;;;;12.57;8.77;;;;;;;20.77;62.80;99365.44;5073911;28;20045;-81
2022/07/10 03:00:44;;;;;;;11.43;8.50;;;;;;;20.73;63.72;99380.63;5073985;28;20056;-81
2022/07/10 03:03:12;;;;;;;14.85;8.65;;;;;;;20.63;64.41;99384.66;5073951;28;20554;-80
2022/07/10 03:05:38;;;;;;;14.30;9.05;;;;;;;20.59;64.60;99385.72;5074107;28;20075;-80
2022/07/10 03:08:06;;;;;;;12.13;8.73;;;;;;;20.66;64.41;99388.00;5073655;28;20056;-80
2022/07/10 03:10:33;;;;;;;12.05;8.23;;;;;;;20.78;64.04;99398.97;5073882;28;20107;-80
2022/07/10 03:13:00;;;;;;;12.02;9.15;;;;;;;21.04;63.34;99401.31;5073489;28;20048;-81
2022/07/10 03:15:27;;;;;;;12.90;9.60;;;;;;;21.29;62.78;99416.06;5073826;28;20048;-80
2022/07/10 03:17:54;;;;;;;13.98;9.10;;;;;;;21.67;61.84;99392.97;5073900;28;20139;-82
2022/07/10 03:20:21;;;;;;;12.55;8.68;;;;;;;25.47;52.06;99407.81;5072843;28;20045;-82
2022/07/10 03:22:48;;;;;;;12.75;8.50;;;;;;;28.71;44.01;99384.47;5073902;28;20159;-83
2022/07/10 03:25:15;;;;;;;10.20;8.40;;;;;;;30.88;39.56;99403.25;5072464;28;20056;-83
2022/07/10 03:27:42;;;;;;;11.75;8.05;;;;;;;32.27;36.45;99394.22;5073536;28;20049;-81
2022/07/10 03:30:10;;;;;;;9.93;8.43;;;;;;;32.90;35.12;99412.56;5073490;28;20448;-82
2022/07/10 03:32:37;;;;;;;11.65;8.80;;;;;;;33.34;34.24;99405.53;5073670;28;20084;-82
2022/07/10 03:35:04;;;;;;;13.27;8.73;;;;;;;34.37;32.82;99419.53;5073497;28;20103;-82
2022/07/10 03:37:31;;;;;;;9.98;8.88;;;;;;;35.63;30.46;99416.25;5073536;28;20075;-82
2022/07/10 03:39:58;;;;;;;13.68;9.60;;;;;;;34.81;31.87;99402.38;5074454;28;20135;-82
2022/07/10 03:42:25;;;;;;;13.85;10.20;;;;;;;31.80;36.48;99416.56;5073970;28;20071;-82
2022/07/10 03:44:52;;;;;;;12.55;10.10;;;;;;;29.28;41.72;99409.53;5072123;28;20085;-82
2022/07/10 03:47:19;;;;;;;12.15;10.43;;;;;;;27.78;45.01;99392.53;5082907;28;20032;-82
2022/07/10 03:49:46;;;;;;;12.95;10.68;;;;;;;26.67;47.27;99354.19;5090048;28;20076;-84
2022/07/10 03:52:13;;;;;;;14.20;11.00;;;;;;;26.34;48.65;99377.84;5074439;28;20049;-83
2022/07/10 03:54:40;;;;;;;13.30;11.30;;;;;;;25.98;49.62;99353.63;5072232;28;20078;-83
2022/07/10 03:59:53;;;;;;;12.57;10.77;;;;;;;26.42;49.19;99382.66;5073289;28;20075;-82
2022/07/10 04:02:19;;;;;;;15.13;11.75;;;;;;;26.04;50.35;99366.59;5071950;28;20052;-81
2022/07/10 04:04:46;;;;;;;13.52;10.77;;;;;;;25.84;51.07;99352.72;5072975;28;20521;-82
2022/07/10 04:07:14;;;;;;;15.55;11.05;;;;;;;25.79;51.12;99348.63;5072740;28;20056;-81
2022/07/10 04:09:41;;;;;;;13.85;11.70;;;;;;;24.48;53.80;99285.84;5071918;28;20433;-81
2022/07/10 04:12:08;;;;;;;15.18;12.23;;;;;;;23.92;56.44;99332.88;5072372;28;20417;-81
2022/07/10 04:14:35;;;;;;;16.02;11.77;;;;;;;23.33;58.51;99335.41;5073108;28;20060;-80
2022/07/10 04:17:02;;;;;;;16.35;11.65;;;;;;;22.84;60.01;99314.16;5071876;28;20502;-82
2022/07/10 04:19:29;;;;;;;16.23;11.60;;;;;;;22.54;61.31;99324.72;5072868;28;20048;-83
2022/07/10 04:21:56;;;;;;;14.88;12.13;;;;;;;22.08;62.20;99258.84;5074733;28;20060;-82
2022/07/10 04:24:23;;;;;;;15.30;11.68;;;;;;;22.14;62.92;99306.41;5092913;28;20047;-83
2022/07/10 04:26:50;;;;;;;15.98;11.63;;;;;;;22.16;63.17;99316.97;5092912;28;20054;-82
2022/07/10 04:29:17;;;;;;;15.32;11.43;;;;;;;22.10;63.46;99315.47;5093068;28;20048;-83
2022/07/10 04:31:44;;;;;;;14.40;11.80;;;;;;;21.81;63.87;99277.13;5078370;28;20501;-84
2022/07/10 04:34:11;;;;;;;15.60;12.55;;;;;;;21.59;64.35;99235.72;5077800;28;20058;-83
2022/07/10 04:36:38;;;;;;;16.88;12.23;;;;;;;21.77;64.32;99281.75;5093077;28;20052;-84
2022/07/10 04:39:05;;;;;;;17.23;13.15;;;;;;;21.81;64.89;99299.25;5092561;28;20437;-83
2022/07/10 04:41:32;;;;;;;14.82;12.20;;;;;;;21.59;65.11;99258.78;5092933;28;20094;-82
2022/07/10 04:44:00;;;;;;;18.50;12.38;;;;;;;21.74;65.39;99297.84;5091685;28;20109;-82
2022/07/10 04:46:27;;;;;;;14.52;12.60;;;;;;;21.65;65.58;99295.66;5092833;28;20052;-83
2022/07/10 04:48:54;;;;;;;16.95;12.88;;;;;;;21.52;66.11;99295.44;5091163;28;20052;-81
2022/07/10 04:51:22;;;;;;;16.30;12.20;;;;;;;21.36;66.88;99292.66;5092227;28;20462;-80
2022/07/10 04:53:49;;;;;;;15.57;12.85;;;;;;;21.28;67.71;99302.81;5093156;28;20052;-80
2022/07/10 04:56:16;;;;;;;15.15;12.60;;;;;;;21.20;67.92;99305.81;5092645;28;20052;-80
2022/07/10 04:58:44;;;;;;;15.73;13.07;;;;;;;21.29;67.86;99320.44;5092456;28;20049;-80
2022/07/10 05:01:18;;;;;;;15.70;13.48;;;;;;;21.27;67.97;99324.97;5092443;28;20131;-82
2022/07/10 05:03:45;;;;;;;15.88;13.27;;;;;;;21.13;68.46;99300.91;5092730;28;20048;-81
2022/07/10 05:06:12;;;;;;;18.75;13.77;;;;;;;21.11;68.33;99294.81;5080430;28;20056;-82
2022/07/10 05:08:39;;;;;;;17.73;13.70;;;;;;;21.15;67.97;99291.06;5075224;28;20052;-81
2022/07/10 05:11:07;;;;;;;16.27;14.00;;;;;;;21.28;67.76;99301.00;5078862;28;20091;-82
2022/07/10 05:13:34;;;;;;;19.77;14.15;;;;;;;21.47;67.42;99313.41;5080689;28;20059;-82
2022/07/10 05:16:01;;;;;;;18.52;14.80;;;;;;;21.54;67.59;99325.44;5078913;28;20147;-80
2022/07/10 05:18:28;;;;;;;20.83;15.23;;;;;;;21.70;67.72;99337.94;5077097;28;20064;-82
2022/07/10 05:20:55;;;;;;;20.02;15.32;;;;;;;21.76;67.35;99338.50;5074278;28;20071;-82
2022/07/10 05:23:22;;;;;;;16.15;14.00;;;;;;;21.93;66.91;99356.25;5075814;28;20056;-81
2022/07/10 05:25:49;;;;;;;17.65;14.40;;;;;;;22.32;66.03;99360.44;5076066;28;20068;-82
2022/07/10 05:28:16;;;;;;;17.25;14.35;;;;;;;22.94;64.00;99360.66;5075614;28;20094;-82
2022/07/10 05:30:43;;;;;;;17.67;14.18;;;;;;;23.41;62.29;99357.13;5075914;28;20143;-81
2022/07/10 05:33:10;;;;;;;17.55;13.32;;;;;;;24.13;59.96;99365.38;5075777;28;20498;-83
2022/07/10 05:35:37;;;;;;;13.85;11.75;;;;;;;24.31;58.99;99334.91;5075165;28;20433;-83
2022/07/10 05:38:04;;;;;;;15.57;13.45;;;;;;;24.43;58.53;99329.75;5077615;28;20074;-82
2022/07/10 05:40:32;;;;;;;16.63;12.52;;;;;;;24.71;58.08;99360.97;5076099;28;20063;-82
2022/07/10 05:42:59;;;;;;;14.77;12.80;;;;;;;24.69;57.55;99345.06;5076176;28;20486;-82
2022/07/10 05:45:26;;;;;;;16.13;13.48;;;;;;;24.62;58.02;99338.38;5075784;28;20049;-84
2022/07/10 05:47:53;;;;;;;16.45;13.48;;;;;;;24.73;57.83;99335.00;5077700;28;20534;-82
2022/07/10 05:50:21;;;;;;;14.43;12.90;;;;;;;24.76;57.21;99316.16;5089693;28;20039;-83
2022/07/10 05:52:48;;;;;;;14.30;12.05;;;;;;;25.44;55.75;99349.19;5084098;28;20395;-82
2022/07/10 05:55:15;;;;;;;16.25;14.35;;;;;;;25.24;55.63;99297.91;5076390;28;20098;-82
2022/07/10 05:57:42;;;;;;;15.70;13.43;;;;;;;25.44;55.35;99338.47;5075793;28;20081;-82
2022/07/10 06:00:10;;;;;;;17.25;13.23;;;;;;;25.54;54.48;99316.38;5074278;28;20506;-83
2022/07/10 06:02:40;;;;;;;14.88;12.23;;;;;;;25.49;54.70;99325.66;5075991;28;20107;-83
2022/07/10 06:05:09;;;;;;;13.25;11.85;;;;;;;25.71;54.13;99323.25;5075323;28;20057;-84
2022/07/10 06:07:36;;;;;;;14.27;11.20;;;;;;;25.82;53.30;99319.88;5076218;28;20053;-83
2022/07/10 06:10:05;;;;;;;14.57;10.35;;;;;;;25.83;52.78;99320.72;5075228;28;20444;-81
2022/07/10 06:12:32;;;;;;;12.38;10.38;;;;;;;25.66;52.93;99285.28;5075363;28;20151;-81
2022/07/10 06:14:59;;;;;;;11.85;9.70;;;;;;;26.27;51.78;99328.38;5075229;28;20055;-83
2022/07/10 06:17:26;;;;;;;10.98;9.88;;;;;;;26.45;50.56;99334.25;5076223;28;20049;-83
2022/07/10 06:19:54;;;;;;;10.82;9.52;;;;;;;26.81;49.83;99342.50;5088571;28;20125;-83
2022/07/10 06:22:30;;;;;;;9.68;8.68;;;;;;;26.75;48.68;99312.47;5094161;28;20159;-81
2022/07/10 06:25:04;;;;;;;10.77;8.73;;;;;;;26.70;48.29;99348.63;5094108;28;20063;-79
2022/07/10 06:27:32;;;;;;;9.55;7.40;;;;;;;26.31;48.66;99319.16;5093210;28;20062;-81
2022/07/10 06:30:00;;;;;;;8.88;7.47;;;;;;;26.15;48.92;99311.34;5082916;28;20151;-84
2022/07/10 06:32:29;;;;;;;;;;;;;;;26.04;49.71;99323.78;5095888;28;20052;-83
2022/07/10 06:34:56;;;;;;;8.23;7.43;;;;;;;25.92;47.94;99290.69;5093967;28;19924;-81
2022/07/10 06:37:23;;;;;;;9.52;6.72;;;;;;;26.39;47.34;99329.31;5093643;28;20052;-80
2022/07/10 06:39:50;;;;;;;7.85;7.05;;;;;;;26.40;47.12;99322.16;5094868;28;20059;-80
2022/07/10 06:42:17;;;;;;;10.38;7.63;;;;;;;26.50;47.29;99309.81;5094832;28;20090;-80
2022/07/10 06:44:48;;;;;;;8.02;7.22;;;;;;;26.73;47.15;99314.41;5093286;28;20476;-81
2022/07/10 06:50:04;;;;;;;8.48;7.60;;;;;;;27.14;45.61;99315.88;5095365;28;20055;-80
2022/07/10 06:52:33;;;;;;;11.23;8.07;;;;;;;26.79;46.38;99289.00;5095588;28;20058;-80
2022/07/10 06:55:01;;;;;;;8.87;7.03;;;;;;;26.75;45.97;99330.38;5088688;28;20056;-80
2022/07/10 06:57:28;;;;;;;8.40;6.80;;;;;;;26.64;46.39;99324.94;5094562;28;20055;-80
2022/07/10 06:59:56;;;;;;;7.50;6.78;;;;;;;26.65;45.82;99332.88;5091924;28;20521;-80
2022/07/10 07:02:23;;;;;;;7.03;6.20;;;;;;;26.32;46.24;99318.19;5105421;28;20055;-82
2022/07/10 07:04:50;;;;;;;9.18;6.63;;;;;;;26.57;46.26;99335.25;5095161;28;20458;-80
2022/07/10 07:07:17;;;;;;;7.93;7.03;;;;;;;26.73;46.25;99329.63;5094270;28;20101;-79
2022/07/10 07:09:51;;;;;;;9.10;6.97;;;;;;;26.85;45.73;99327.91;5089396;28;20067;-81
2022/07/10 07:12:18;;;;;;;9.25;6.40;;;;;;;26.73;45.49;99302.84;5073770;28;20086;-82
2022/07/10 07:14:45;;;;;;;7.40;6.55;;;;;;;26.83;45.05;99305.72;5074081;28;20052;-81
2022/07/10 07:17:14;;;;;;;8.05;6.85;;;;;;;26.90;45.21;99331.09;5074448;28;20497;-81
2022/07/10 07:25:12;;;;;;;7.97;5.20;;;;;;;27.28;42.42;99330.16;5072605;28;20426;-80
2022/07/10 07:27:39;;;;;;;8.93;5.50;;;;;;;27.20;42.88;99325.31;5073459;28;20059;-80
2022/07/10 07:30:14;;;;;;;6.10;5.22;;;;;;;27.21;42.61;99326.16;5073246;28;20445;-80
2022/07/10 07:32:43;;;;;;;7.20;5.55;;;;;;;27.18;42.42;99317.38;5072500;28;20067;-79
2022/07/10 07:35:12;;;;;;;5.97;4.82;;;;;;;26.98;42.55;99315.31;5072145;28;20139;-79
2022/07/10 07:37:39;;;;;;;5.77;5.27;;;;;;;26.97;42.51;99318.94;5073811;28;20048;-79
2022/07/10 07:40:09;;;;;;;7.18;5.70;;;;;;;26.85;42.99;99330.59;5055606;28;20533;-80
2022/07/10 07:42:37;;;;;;;6.35;5.75;;;;;;;26.69;43.22;99309.38;5073496;28;20052;-79
2022/07/10 07:45:04;;;;;;;7.38;6.15;;;;;;;26.87;43.56;99324.13;5072119;28;20086;-78
2022/07/10 07:47:54;;;;;;;8.27;5.82;;;;;;;27.16;42.88;99311.25;5073201;28;20097;-79
2022/07/10 07:50:25;;;;;;;8.07;6.25;;;;;;;27.18;42.32;99320.03;5078048;28;20076;-78
2022/07/10 07:52:53;;;;;;;8.10;5.93;;;;;;;27.23;42.79;99324.25;5086056;28;20033;-79
2022/07/10 07:55:22;;;;;;;8.18;6.00;;;;;;;27.36;43.39;99306.28;5085864;28;20071;-79
2022/07/10 07:57:53;;;;;;;10.65;6.40;;;;;;;27.49;42.75;99315.13;5072763;28;20548;-79
2022/07/10 08:00:22;;;;;;;8.18;6.10;;;;;;;27.66;42.83;99318.34;5072876;28;20059;-81
2022/07/10 08:02:50;;;;;;;9.48;5.85;;;;;;;27.64;42.76;99306.88;5073161;28;20114;-82
2022/07/10 08:05:18;;;;;;;7.43;5.70;;;;;;;27.79;42.39;99300.31;5072714;28;20128;-80
2022/07/10 08:07:50;;;;;;;8.55;5.82;;;;;;;28.03;42.19;99297.63;5073275;28;20458;-78
2022/07/10 08:10:19;;;;;;;6.32;5.72;;;;;;;28.13;41.91;99297.75;5072544;28;20057;-80
2022/07/10 08:12:47;;;;;;;5.35;4.85;;;;;;;28.09;40.80;99283.72;5072660;28;20125;-80
2022/07/10 08:15:18;;;;;;;8.32;5.38;;;;;;;28.13;41.75;99298.59;5072613;28;20052;-79
2022/07/10 08:17:55;;;;;;;8.77;5.22;;;;;;;28.17;41.69;99291.16;5072668;28;20552;-79
2022/07/10 08:20:25;;;;;;;7.00;5.38;;;;;;;28.22;41.71;99294.31;5072629;28;20068;-80
2022/07/10 08:22:55;;;;;;;;;;;;;;;27.98;42.56;99292.63;5072880;28;20056;-79
2022/07/10 08:25:27;;;;;;;6.47;5.10;;;;;;;28.25;41.13;99294.09;5071537;28;19954;-79
2022/07/10 08:27:54;;;;;;;6.15;4.75;;;;;;;28.44;40.51;99308.72;5073178;28;20052;-80
2022/07/10 08:30:21;;;;;;;7.38;4.75;;;;;;;28.24;40.22;99292.38;5073121;28;20060;-79
2022/07/10 08:32:49;;;;;;;6.25;4.47;;;;;;;27.99;40.38;99304.19;5074205;28;20064;-79
2022/07/10 08:35:16;;;;;;;6.95;4.53;;;;;;;27.93;40.52;99302.00;5072374;28;20106;-79
2022/07/10 08:37:47;;;;;;;11.70;5.60;;;;;;;27.88;40.66;99253.19;5072417;28;20101;-79
2022/07/10 08:40:16;;;;;;;7.38;4.28;;;;;;;28.36;39.26;99309.34;5072761;28;20509;-79
2022/07/10 08:42:44;;;;;;;9.13;4.50;;;;;;;28.31;38.63;99307.03;5072439;28;20079;-79
2022/07/10 08:45:12;;;;;;;6.05;4.13;;;;;;;28.26;38.62;99314.59;5072397;28;20048;-80
2022/07/10 08:47:44;;;;;;;6.53;4.20;;;;;;;28.30;38.70;99302.63;5072481;28;20056;-79
2022/07/10 08:50:22;;;;;;;5.50;4.10;;;;;;;27.91;38.71;99263.69;5072174;28;20510;-80
2022/07/10 08:53:04;;;;;;;5.60;4.43;;;;;;;27.96;39.02;99266.84;5071054;28;20059;-80
2022/07/10 08:55:31;;;;;;;6.90;4.05;;;;;;;28.34;39.19;99301.41;5072168;28;20060;-79
2022/07/10 08:57:59;;;;;;;4.93;4.25;;;;;;;28.50;38.40;99297.53;5070974;28;20057;-79
2022/07/10 09:00:26;;;;;;;6.82;4.10;;;;;;;28.68;36.97;99298.75;5072626;28;20057;-78
2022/07/10 09:02:56;;;;;;;5.80;3.85;;;;;;;28.82;36.69;99270.75;5073145;28;20060;-79
2022/07/10 09:05:24;;;;;;;6.00;4.60;;;;;;;28.97;35.90;99241.75;5071117;28;20052;-79
2022/07/10 09:07:53;;;;;;;4.70;3.58;;;;;;;29.14;35.98;99267.28;5072205;28;20056;-79
2022/07/10 09:10:23;;;;;;;4.30;3.95;;;;;;;29.20;35.15;99285.59;5070779;28;20052;-79
2022/07/10 09:12:57;;;;;;;4.10;3.70;;;;;;;29.13;35.47;99287.94;5072298;28;20143;-79
2022/07/10 09:15:27;;;;;;;4.20;3.78;;;;;;;29.14;35.07;99286.94;5072083;28;20524;-79
2022/07/10 09:17:56;;;;;;;6.90;4.22;;;;;;;29.26;35.25;99273.47;5072117;28;20052;-78
2022/07/10 09:20:29;;;;;;;5.00;3.30;;;;;;;29.56;34.06;99286.19;5071981;28;20551;-80
2022/07/10 09:23:14;;;;;;;6.57;3.45;;;;;;;29.22;33.71;99231.69;5072198;28;20395;-80
2022/07/10 09:25:41;;;;;;;7.15;5.28;;;;;;;29.46;34.57;99248.44;5072716;28;20059;-79
2022/07/10 09:28:08;;;;;;;4.10;3.70;;;;;;;29.76;33.46;99281.81;5072080;28;20088;-78
2022/07/10 09:30:37;;;;;;;5.47;3.90;;;;;;;29.54;34.29;99288.16;5071704;28;20063;-79
2022/07/10 09:33:29;;;;;;;4.50;3.20;;;;;;;29.42;34.48;99278.41;5070593;28;20123;-79
2022/07/10 09:36:12;;;;;;;4.35;3.33;;;;;;;29.67;34.12;99274.50;5072146;28;20052;-79
2022/07/10 09:38:43;;;;;;;6.25;3.60;;;;;;;29.87;33.19;99276.34;5072042;28;20095;-79
2022/07/10 09:41:27;;;;;;;5.50;3.58;;;;;;;29.89;33.09;99266.31;5070609;28;20055;-79
2022/07/10 09:43:59;;;;;;;3.85;2.95;;;;;;;29.76;33.23;99271.91;5072315;28;20133;-79
2022/07/10 09:46:40;;;;;;;7.15;3.55;;;;;;;29.64;33.23;99272.91;5072375;28;20048;-79
2022/07/10 09:49:13;;;;;;;4.18;3.40;;;;;;;29.48;33.31;99277.91;5072089;28;20116;-79
2022/07/10 09:51:45;;;;;;;5.85;3.40;;;;;;;29.50;33.42;99268.72;5072191;28;20056;-79
2022/07/10 09:54:18;;;;;;;3.55;3.17;;;;;;;29.68;32.79;99257.34;5081818;28;20075;-79
2022/07/10 09:56:51;;;;;;;;;;;;;;;29.36;33.17;99261.81;5095621;28;20091;-78
2022/07/10 09:59:20;;;;;;;4.55;2.97;;;;;;;29.61;32.75;99271.34;5075382;28;19924;-78
2022/07/10 10:01:52;;;;;;;4.38;3.40;;;;;;;30.05;32.63;99275.75;5075090;28;20098;-79
2022/07/10 10:04:23;;;;;;;5.75;3.08;;;;;;;30.31;31.90;99252.81;5075170;28;20056;-79
2022/07/10 10:06:52;;;;;;;5.78;3.28;;;;;;;30.32;31.22;99245.56;5075169;28;20061;-80
2022/07/10 10:09:23;;;;;;;3.70;3.40;;;;;;;30.02;31.90;99247.25;5075776;28;20048;-80
2022/07/10 10:12:00;;;;;;;3.45;3.08;;;;;;;29.82;32.04;99240.06;5075243;28;20295;-79
2022/07/10 10:14:28;;;;;;;3.90;3.30;;;;;;;29.72;32.51;99251.59;5075152;28;20057;-78
2022/07/10 10:16:56;;;;;;;3.30;2.88;;;;;;;29.54;32.79;99243.25;5074932;28;20056;-80
2022/07/10 10:22:17;;;;;;;4.47;3.25;;;;;;;29.29;33.83;99220.25;5075372;28;20088;-79
2022/07/10 10:24:46;;;;;;;4.05;3.00;;;;;;;29.74;33.18;99259.56;5073980;28;20058;-79
2022/07/10 10:27:14;;;;;;;7.38;3.22;;;;;;;29.99;33.20;99255.59;5074683;28;20049;-80
2022/07/10 10:29:42;;;;;;;4.00;3.10;;;;;;;30.25;32.19;99257.84;5074835;28;20080;-80
2022/07/10 10:32:09;;;;;;;5.18;2.80;;;;;;;30.24;32.40;99243.50;5074545;28;20084;-80
2022/07/10 10:34:44;;;;;;;3.92;3.03;;;;;;;30.07;32.60;99249.53;5074309;28;20427;-80
2022/07/10 10:37:26;;;;;;;6.55;3.50;;;;;;;29.99;32.72;99245.69;5074626;28;20101;-80
2022/07/10 10:39:55;;;;;;;3.20;2.90;;;;;;;29.96;32.85;99254.00;5074878;28;20049;-80
2022/07/10 10:42:35;;;;;;;4.13;3.15;;;;;;;30.11;32.55;99235.66;5056857;28;20148;-79
2022/07/10 10:45:32;;;;;;;3.60;3.30;;;;;;;30.22;32.69;99232.03;5073379;28;20567;-80
2022/07/10 10:48:06;;;;;;;4.70;3.08;;;;;;;30.18;32.25;99236.00;5074160;28;20421;-79
2022/07/10 10:50:53;;;;;;;5.25;3.58;;;;;;;30.24;32.91;99232.75;5074234;28;20606;-79
2022/07/10 10:53:28;;;;;;;7.07;3.55;;;;;;;30.40;32.74;99243.06;5074093;28;20075;-80
2022/07/10 10:56:00;;;;;;;3.85;3.42;;;;;;;30.30;32.60;99239.47;5075030;28;20493;-79
2022/07/10 10:58:35;;;;;;;4.47;3.25;;;;;;;30.39;32.89;99253.00;5074134;28;20144;-79
2022/07/10 11:01:05;;;;;;;3.75;3.40;;;;;;;30.40;32.72;99230.44;5074406;28;20098;-79
2022/07/10 11:03:32;;;;;;;6.32;3.40;;;;;;;30.65;32.54;99240.84;5074080;28;20052;-80
2022/07/10 11:06:02;;;;;;;3.50;3.15;;;;;;;30.87;31.94;99239.78;5073236;28;20052;-81
2022/07/10 11:08:41;;;;;;;3.90;3.40;;;;;;;30.93;32.34;99228.44;5073500;28;20174;-79
2022/07/10 11:11:41;;;;;;;4.20;3.30;;;;;;;31.28;32.34;99235.13;5073840;28;20075;-80
2022/07/10 11:14:10;;;;;;;3.63;3.33;;;;;;;31.51;31.48;99230.31;5030939;28;20055;-80
2022/07/10 11:16:38;;;;;;;4.43;3.40;;;;;;;31.68;31.54;99228.72;5073200;28;20083;-79
2022/07/10 11:19:10;;;;;;;6.45;3.80;;;;;;;31.73;30.93;99226.41;5073678;28;20139;-79
2022/07/10 11:21:47;;;;;;;4.28;3.72;;;;;;;32.02;30.52;99229.94;5073584;28;20101;-80
2022/07/10 11:24:40;;;;;;;5.68;3.25;;;;;;;31.76;30.65;99215.34;5073759;28;20045;-81
2022/07/10 11:27:52;;;;;;;4.85;3.47;;;;;;;31.55;31.42;99223.63;5073512;28;20422;-80
2022/07/10 11:30:19;;;;;;;5.47;3.53;;;;;;;31.44;31.18;99227.34;5078184;28;20071;-80
2022/07/10 11:32:46;;;;;;;7.30;3.50;;;;;;;31.28;30.00;99229.72;5079039;28;20052;-78
2022/07/10 11:35:13;;;;;;;9.40;3.22;;;;;;;31.18;30.10;99225.19;5075923;28;20509;-79
2022/07/10 11:37:53;;;;;;;5.18;3.25;;;;;;;31.23;30.07;99222.06;5073105;28;20537;-80
2022/07/10 11:40:21;;;;;;;6.80;3.42;;;;;;;31.25;30.57;99221.94;5073567;28;20056;-79
2022/07/10 11:42:55;;;;;;;4.82;3.40;;;;;;;31.32;30.70;99234.72;5073678;28;20436;-80
2022/07/10 11:45:26;;;;;;;6.45;3.08;;;;;;;31.25;31.14;99224.63;5073789;28;20056;-79
2022/07/10 11:47:54;;;;;;;7.88;3.58;;;;;;;31.21;30.51;99227.63;5074168;28;20115;-79
2022/07/10 11:50:20;;;;;;;6.65;3.53;;;;;;;31.16;30.78;99231.72;5073059;28;20057;-80
2022/07/10 11:52:49;;;;;;;7.50;3.13;;;;;;;30.89;30.75;99205.44;5074655;28;20044;-80
2022/07/10 11:55:20;;;;;;;5.05;3.40;;;;;;;30.96;30.68;99231.72;5073517;28;20052;-80